Time;durP1;ratioP1;P1;durP2;ratioP2;P2;SDS_P1;SDS_P2;PMS_P1;PMS_P2;Temp;Humidity;BMP_temperature;BMP_pressure;BME280_temperature;BME280_humidity;BME280_pressure;Samples;Min_cycle;Max_cycle;Signal;HPM_P1;HPM_P2
2023/10/27 00:01:23;;;;;;;7.20;7.10;;;10.60;99.90;;;;;;5022426;27;20597;-72
2023/10/27 00:03:50;;;;;;;7.40;7.30;;;10.50;99.90;;;;;;5021437;27;20479;-70
2023/10/27 00:06:17;;;;;;;7.87;7.77;;;10.50;99.90;;;;;;5021405;28;20457;-71
2023/10/27 00:08:44;;;;;;;7.83;7.73;;;10.50;99.90;;;;;;5031612;27;20975;-70
2023/10/27 00:11:11;;;;;;;7.87;7.77;;;10.50;99.90;;;;;;5023754;27;20457;-71
2023/10/27 00:13:39;;;;;;;7.93;7.83;;;10.50;99.90;;;;;;5026170;28;20477;-72
2023/10/27 00:16:10;;;;;;;7.43;7.33;;;10.40;99.90;;;;;;5024770;28;20466;-71
2023/10/27 00:18:37;;;;;;;7.77;7.67;;;10.40;99.90;;;;;;5039993;28;20597;-71
2023/10/27 00:21:05;;;;;;;8.00;7.90;;;10.30;99.90;;;;;;5021870;28;20515;-70
2023/10/27 00:23:33;;;;;;;8.37;8.27;;;10.40;99.90;;;;;;5028446;28;20518;-71
2023/10/27 00:26:00;;;;;;;7.50;7.40;;;10.40;99.90;;;;;;5027271;28;20534;-71
2023/10/27 00:28:27;;;;;;;8.23;8.13;;;10.30;99.90;;;;;;5024440;28;20488;-70
2023/10/27 00:30:56;;;;;;;7.60;7.50;;;10.30;99.90;;;;;;5036683;28;20457;-69
2023/10/27 00:33:23;;;;;;;7.57;7.47;;;10.30;99.90;;;;;;5040608;28;20546;-70
2023/10/27 00:35:54;;;;;;;6.67;6.57;;;10.30;99.90;;;;;;5020829;28;20682;-71
2023/10/27 00:38:21;;;;;;;7.40;7.30;;;10.30;99.90;;;;;;5060479;28;20576;-72
2023/10/27 00:40:49;;;;;;;7.93;7.83;;;10.30;99.90;;;;;;5030961;28;20546;-71
2023/10/27 00:43:16;;;;;;;7.40;7.30;;;10.30;99.90;;;;;;5025630;28;20464;-69
2023/10/27 00:45:46;;;;;;;7.43;7.33;;;10.30;99.90;;;;;;5017879;28;20524;-71
2023/10/27 00:48:15;;;;;;;7.13;7.03;;;10.30;99.90;;;;;;5023308;28;20482;-68
2023/10/27 00:50:43;;;;;;;7.43;7.33;;;10.20;99.90;;;;;;5020093;28;20982;-69
2023/10/27 00:53:10;;;;;;;7.93;7.83;;;10.20;99.90;;;;;;5012417;28;20898;-70
2023/10/27 00:55:39;;;;;;;8.03;7.93;;;10.30;99.90;;;;;;5023899;28;20465;-73
2023/10/27 00:58:08;;;;;;;7.80;7.70;;;10.30;99.90;;;;;;5024768;28;20956;-71
2023/10/27 01:00:35;;;;;;;7.47;7.37;;;10.30;99.90;;;;;;5017388;28;20473;-71
2023/10/27 01:03:02;;;;;;;7.03;6.93;;;10.30;99.90;;;;;;5021370;28;20497;-70
2023/10/27 01:05:31;;;;;;;7.37;7.27;;;10.30;99.90;;;;;;5022185;28;20465;-70
2023/10/27 01:07:58;;;;;;;6.90;6.80;;;10.20;99.90;;;;;;5026654;28;20454;-70
2023/10/27 01:10:25;;;;;;;7.10;7.00;;;10.20;99.90;;;;;;5018917;27;20542;-70
2023/10/27 01:12:52;;;;;;;6.93;6.83;;;10.20;99.90;;;;;;5029345;27;20484;-70
2023/10/27 01:15:19;;;;;;;7.27;7.17;;;10.20;99.90;;;;;;5022826;28;20458;-70
2023/10/27 01:17:47;;;;;;;7.17;7.07;;;10.20;99.90;;;;;;5028363;27;20461;-71
2023/10/27 01:20:13;;;;;;;8.13;8.03;;;10.20;99.90;;;;;;5021405;27;20485;-70
2023/10/27 01:22:46;;;;;;;7.13;7.03;;;10.20;99.90;;;;;;5022638;27;21168;-71
2023/10/27 01:25:13;;;;;;;6.50;6.40;;;10.20;99.90;;;;;;5022249;27;20464;-71
2023/10/27 01:27:40;;;;;;;7.07;6.97;;;10.20;99.90;;;;;;5029660;27;20453;-69
2023/10/27 01:30:08;;;;;;;7.33;7.23;;;10.10;99.90;;;;;;5021976;27;20496;-70
2023/10/27 01:32:36;;;;;;;6.83;6.73;;;10.10;99.90;;;;;;5039849;27;20560;-69
2023/10/27 01:35:03;;;;;;;7.20;7.10;;;10.10;99.90;;;;;;5019393;27;20470;-72
2023/10/27 01:37:30;;;;;;;7.40;7.30;;;10.10;99.90;;;;;;5030122;27;20901;-68
2023/10/27 01:39:59;;;;;;;7.33;7.23;;;10.10;99.90;;;;;;5040885;27;20967;-70
2023/10/27 01:42:26;;;;;;;6.50;6.40;;;10.10;99.90;;;;;;5010758;28;20686;-71
2023/10/27 01:44:54;;;;;;;6.90;6.80;;;10.10;99.90;;;;;;5010674;28;20968;-70
2023/10/27 01:47:20;;;;;;;6.93;6.83;;;10.10;99.90;;;;;;5010293;28;20511;-70
2023/10/27 01:49:47;;;;;;;6.00;5.90;;;10.10;99.90;;;;;;5010872;28;20451;-69
2023/10/27 01:52:14;;;;;;;7.07;6.97;;;10.10;99.90;;;;;;5010453;28;20504;-69
2023/10/27 01:54:41;;;;;;;7.10;7.00;;;10.10;99.90;;;;;;5009102;28;20473;-69
2023/10/27 01:57:09;;;;;;;6.97;6.87;;;10.10;99.90;;;;;;5010961;28;20813;-69
2023/10/27 01:59:36;;;;;;;7.57;7.47;;;10.10;99.90;;;;;;5008850;28;20489;-69
2023/10/27 02:02:04;;;;;;;7.03;6.93;;;10.10;99.90;;;;;;5010205;28;20454;-69
2023/10/27 02:07:53;;;;;;;7.77;7.67;;;10.10;99.90;;;;;;5010347;28;20425;-70
2023/10/27 02:10:19;;;;;;;8.00;7.90;;;10.10;99.90;;;;;;5009098;28;20653;-71
2023/10/27 02:12:47;;;;;;;8.13;8.03;;;10.10;99.90;;;;;;5009217;28;20588;-70
2023/10/27 02:15:14;;;;;;;9.20;9.00;;;10.10;99.90;;;;;;5009601;28;20449;-69
2023/10/27 02:17:41;;;;;;;9.50;9.30;;;10.20;99.90;;;;;;5009886;28;20454;-69
2023/10/27 02:20:09;;;;;;;8.73;8.60;;;10.20;99.90;;;;;;5009847;28;20478;-69
2023/10/27 02:22:36;;;;;;;9.70;9.50;;;10.20;99.90;;;;;;5008498;28;20469;-70
2023/10/27 02:25:03;;;;;;;10.13;9.93;;;10.20;99.90;;;;;;5010214;28;20450;-71
2023/10/27 02:27:31;;;;;;;10.13;9.93;;;10.20;99.90;;;;;;5009693;28;20454;-71
2023/10/27 02:30:00;;;;;;;10.83;10.53;;;10.20;99.90;;;;;;5008260;28;20446;-70
2023/10/27 02:32:27;;;;;;;11.40;11.10;;;10.10;99.90;;;;;;5009858;28;20507;-70
2023/10/27 02:38:16;;;;;;;12.00;11.70;;;10.10;99.90;;;;;;5009684;28;20433;-70
2023/10/27 02:40:44;;;;;;;13.10;12.70;;;10.20;99.90;;;;;;5012693;28;20505;-71
2023/10/27 02:43:12;;;;;;;13.87;13.37;;;10.10;99.90;;;;;;5020013;28;20899;-71
2023/10/27 02:45:40;;;;;;;13.30;12.90;;;10.10;99.90;;;;;;5019065;27;20576;-69
2023/10/27 02:48:06;;;;;;;13.70;13.20;;;10.20;99.90;;;;;;5037225;27;20510;-70
2023/10/27 02:50:32;;;;;;;13.33;12.93;;;10.10;99.90;;;;;;5026143;27;20500;-69
2023/10/27 02:52:59;;;;;;;13.60;13.20;;;10.10;99.90;;;;;;5026786;27;20195;-70
2023/10/27 02:55:26;;;;;;;13.80;13.30;;;10.10;99.90;;;;;;5028116;27;21132;-69
2023/10/27 02:57:54;;;;;;;13.67;13.20;;;10.10;99.90;;;;;;5031750;27;21350;-70
2023/10/27 03:00:21;;;;;;;14.40;13.90;;;10.10;99.90;;;;;;5052149;27;20504;-70
2023/10/27 03:02:49;;;;;;;14.40;13.90;;;10.10;99.90;;;;;;5016439;27;21214;-71
2023/10/27 03:05:17;;;;;;;14.80;14.30;;;10.10;99.90;;;;;;5026868;28;20503;-71
2023/10/27 03:07:44;;;;;;;14.20;13.70;;;10.20;99.90;;;;;;5028395;27;20495;-71
2023/10/27 03:10:10;;;;;;;13.40;13.00;;;10.20;99.90;;;;;;5029596;27;20492;-71
2023/10/27 03:12:37;;;;;;;13.93;13.43;;;10.10;99.90;;;;;;5024613;27;20470;-70
2023/10/27 03:15:04;;;;;;;13.50;13.10;;;10.10;99.90;;;;;;5026457;27;20468;-70
2023/10/27 03:17:31;;;;;;;13.60;13.20;;;10.10;99.90;;;;;;5021300;27;20465;-70
2023/10/27 03:20:00;;;;;;;13.97;13.47;;;10.10;99.90;;;;;;5027887;27;20993;-72
2023/10/27 03:22:27;;;;;;;13.97;13.47;;;10.10;99.90;;;;;;5029300;27;20522;-72
2023/10/27 03:24:54;;;;;;;12.93;12.53;;;10.10;99.90;;;;;;5021362;27;20457;-71
2023/10/27 03:27:21;;;;;;;13.40;13.00;;;10.10;99.90;;;;;;5028153;27;20816;-73
2023/10/27 03:29:48;;;;;;;13.73;13.27;;;10.10;99.90;;;;;;5019230;27;20485;-70
2023/10/27 03:32:15;;;;;;;13.57;13.13;;;10.10;99.90;;;;;;5022604;28;20461;-72
2023/10/27 03:34:43;;;;;;;12.83;12.43;;;10.10;99.90;;;;;;5024497;27;20943;-71
2023/10/27 03:37:11;;;;;;;13.30;12.90;;;10.10;99.90;;;;;;5021497;27;21008;-72
2023/10/27 03:39:38;;;;;;;12.80;12.40;;;10.00;99.90;;;;;;5027707;28;20506;-71
2023/10/27 03:42:05;;;;;;;12.87;12.47;;;10.00;99.90;;;;;;5027759;28;20480;-72
2023/10/27 03:44:32;;;;;;;13.03;12.63;;;10.00;99.90;;;;;;5023426;27;20488;-71
2023/10/27 03:46:59;;;;;;;13.33;12.93;;;10.10;99.90;;;;;;5043538;27;20481;-72
2023/10/27 03:49:27;;;;;;;13.03;12.63;;;10.00;99.90;;;;;;5028923;28;20465;-73
2023/10/27 03:51:54;;;;;;;12.17;11.87;;;10.00;99.90;;;;;;5019928;28;20477;-72
2023/10/27 03:54:22;;;;;;;12.67;12.27;;;10.00;99.90;;;;;;5027620;28;20457;-72
2023/10/27 03:56:51;;;;;;;12.83;12.43;;;10.00;99.90;;;;;;5026134;27;20457;-69
2023/10/27 03:59:19;;;;;;;13.30;12.90;;;10.00;99.90;;;;;;5026784;28;20507;-71
2023/10/27 04:01:45;;;;;;;13.30;12.90;;;9.90;99.90;;;;;;5011109;28;21115;-72
2023/10/27 04:04:14;;;;;;;12.60;12.20;;;10.00;99.90;;;;;;5022720;28;20529;-73
2023/10/27 04:06:41;;;;;;;13.10;12.70;;;10.00;99.90;;;;;;5026617;28;20493;-71
2023/10/27 04:09:08;;;;;;;13.20;12.80;;;10.00;99.90;;;;;;5033843;27;20466;-70
2023/10/27 04:11:36;;;;;;;13.00;12.60;;;9.90;99.90;;;;;;5033816;27;21280;-72
2023/10/27 04:14:04;;;;;;;12.93;12.53;;;9.90;99.90;;;;;;5021085;28;20469;-70
2023/10/27 04:16:31;;;;;;;13.43;13.03;;;9.90;99.90;;;;;;5024646;28;20550;-70
2023/10/27 04:18:58;;;;;;;14.10;13.60;;;9.90;99.90;;;;;;5026738;27;20449;-72
2023/10/27 04:21:25;;;;;;;13.47;13.07;;;9.90;99.90;;;;;;5027346;28;20931;-72
2023/10/27 04:23:53;;;;;;;13.00;12.60;;;10.00;99.90;;;;;;5016266;28;20610;-71
2023/10/27 04:26:20;;;;;;;12.50;12.10;;;9.90;99.90;;;;;;5044577;28;20453;-71
2023/10/27 04:28:50;;;;;;;12.70;12.30;;;9.90;99.90;;;;;;5021006;28;20994;-71
2023/10/27 04:31:17;;;;;;;12.80;12.40;;;9.90;99.90;;;;;;5020290;28;20469;-70
2023/10/27 04:33:47;;;;;;;12.90;12.50;;;9.90;99.90;;;;;;5027313;28;20460;-71
2023/10/27 04:36:15;;;;;;;13.03;12.63;;;9.90;99.90;;;;;;5026746;28;20450;-71
2023/10/27 04:38:42;;;;;;;13.13;12.73;;;9.90;99.90;;;;;;5027717;28;20518;-72
2023/10/27 04:41:10;;;;;;;12.63;12.23;;;10.00;99.90;;;;;;5020964;28;20572;-71
2023/10/27 04:43:38;;;;;;;12.60;12.20;;;10.00;99.90;;;;;;5014528;28;20476;-71
2023/10/27 04:46:07;;;;;;;12.47;12.07;;;10.00;99.90;;;;;;5031601;27;20870;-71
2023/10/27 04:48:34;;;;;;;12.07;11.77;;;10.00;99.90;;;;;;5030172;28;20449;-72
2023/10/27 04:51:03;;;;;;;12.53;12.13;;;10.00;99.90;;;;;;5025241;27;20519;-71
2023/10/27 04:53:30;;;;;;;11.90;11.60;;;10.00;99.90;;;;;;5014767;27;20468;-71
2023/10/27 04:55:57;;;;;;;12.67;12.27;;;10.00;99.90;;;;;;5029906;27;20514;-70
2023/10/27 04:58:24;;;;;;;11.87;11.57;;;10.00;99.90;;;;;;5046273;27;20461;-72
2023/10/27 05:00:51;;;;;;;12.30;12.00;;;10.00;99.90;;;;;;5025953;27;20879;-69
2023/10/27 05:03:19;;;;;;;11.73;11.43;;;10.00;99.90;;;;;;5020177;27;20990;-70
2023/10/27 05:05:46;;;;;;;11.30;11.00;;;10.00;99.90;;;;;;5068169;27;20456;-70
2023/10/27 05:08:13;;;;;;;11.27;10.97;;;10.00;99.90;;;;;;5035300;27;20457;-69
2023/10/27 05:10:40;;;;;;;10.80;10.57;;;10.00;99.90;;;;;;5023935;28;20743;-70
2023/10/27 05:13:07;;;;;;;11.27;10.97;;;10.00;99.90;;;;;;5021298;27;20521;-71
2023/10/27 05:15:37;;;;;;;10.70;10.50;;;10.10;99.90;;;;;;5030373;27;20461;-69
2023/10/27 05:18:05;;;;;;;10.60;10.40;;;10.10;99.90;;;;;;5029537;27;20491;-71
2023/10/27 05:20:36;;;;;;;11.93;11.63;;;10.00;99.90;;;;;;5027092;27;20526;-71
2023/10/27 05:23:03;;;;;;;11.83;11.53;;;10.20;99.90;;;;;;5024307;27;20461;-72
2023/10/27 05:25:30;;;;;;;12.67;12.27;;;10.20;99.90;;;;;;5018991;27;20465;-71
2023/10/27 05:27:57;;;;;;;11.43;11.13;;;10.20;99.90;;;;;;5019671;27;20458;-71
2023/10/27 05:30:24;;;;;;;11.20;10.90;;;10.20;99.90;;;;;;5022992;27;20828;-71
2023/10/27 05:32:51;;;;;;;11.03;10.73;;;10.20;99.90;;;;;;5028836;27;20449;-70
2023/10/27 05:35:18;;;;;;;11.13;10.83;;;10.20;99.90;;;;;;5031987;27;20457;-72
2023/10/27 05:37:46;;;;;;;11.77;11.47;;;10.30;99.90;;;;;;5055862;27;20983;-70
2023/10/27 05:40:14;;;;;;;10.77;10.57;;;10.20;99.90;;;;;;5019175;27;20542;-71
2023/10/27 05:42:41;;;;;;;11.60;11.30;;;10.20;99.90;;;;;;5028884;27;20476;-70
2023/10/27 05:45:11;;;;;;;10.47;10.27;;;10.20;99.90;;;;;;5028541;28;20482;-71
2023/10/27 05:47:39;;;;;;;11.33;11.03;;;10.20;99.90;;;;;;5017218;28;20465;-70
2023/10/27 05:50:07;;;;;;;10.57;10.37;;;10.20;99.90;;;;;;5020749;27;20466;-71
2023/10/27 05:52:33;;;;;;;10.37;10.17;;;10.20;99.90;;;;;;5036931;27;20468;-71
2023/10/27 05:55:04;;;;;;;10.63;10.43;;;10.20;99.90;;;;;;5026938;27;20462;-71
2023/10/27 05:57:31;;;;;;;10.40;10.20;;;10.20;99.90;;;;;;5022557;27;20462;-71
2023/10/27 05:59:58;;;;;;;9.80;9.60;;;10.20;99.90;;;;;;5021497;27;21051;-71
2023/10/27 06:02:25;;;;;;;11.50;11.20;;;10.10;99.90;;;;;;5029948;27;20461;-72
2023/10/27 06:04:52;;;;;;;10.30;10.10;;;10.20;99.90;;;;;;5020297;27;20901;-69
2023/10/27 06:07:18;;;;;;;10.63;10.43;;;10.20;99.90;;;;;;5021136;27;20469;-70
2023/10/27 06:09:46;;;;;;;10.67;10.47;;;10.20;99.90;;;;;;5028372;27;20466;-71
2023/10/27 06:12:15;;;;;;;11.20;10.90;;;10.20;99.90;;;;;;5019163;27;20856;-70
2023/10/27 06:14:44;;;;;;;10.80;10.60;;;10.30;99.90;;;;;;5021004;27;20472;-71
2023/10/27 06:17:12;;;;;;;10.90;10.70;;;10.30;99.90;;;;;;5029266;27;20570;-70
2023/10/27 06:19:38;;;;;;;10.67;10.47;;;10.30;99.90;;;;;;5046936;27;21161;-72
2023/10/27 06:22:05;;;;;;;9.80;9.60;;;10.30;99.90;;;;;;5014490;27;20878;-69
2023/10/27 06:24:32;;;;;;;10.23;10.03;;;10.30;99.90;;;;;;5022310;27;20808;-71
2023/10/27 06:26:59;;;;;;;9.83;9.63;;;10.30;99.90;;;;;;5020399;27;20837;-70
2023/10/27 06:29:27;;;;;;;9.37;9.17;;;10.40;99.90;;;;;;5018805;27;20490;-70
2023/10/27 06:31:54;;;;;;;9.27;9.13;;;10.40;99.90;;;;;;5023996;27;20465;-72
2023/10/27 06:34:21;;;;;;;10.30;10.10;;;10.40;99.90;;;;;;5027341;27;20464;-70
2023/10/27 06:36:49;;;;;;;9.77;9.57;;;10.40;99.90;;;;;;5016500;27;20471;-71
2023/10/27 06:39:15;;;;;;;9.73;9.53;;;10.40;99.90;;;;;;5021716;27;20461;-70
2023/10/27 06:41:42;;;;;;;10.47;10.27;;;10.50;99.90;;;;;;5039251;27;20508;-71
2023/10/27 06:44:09;;;;;;;10.47;10.27;;;10.50;99.90;;;;;;5019307;27;20539;-71
2023/10/27 06:46:37;;;;;;;10.20;10.00;;;10.50;99.90;;;;;;5025895;27;20508;-71
2023/10/27 06:49:04;;;;;;;9.93;9.73;;;10.60;99.90;;;;;;5019687;27;20472;-71
2023/10/27 06:51:31;;;;;;;9.77;9.57;;;10.60;99.90;;;;;;5028413;28;20510;-71
2023/10/27 06:53:58;;;;;;;10.30;10.10;;;10.60;99.90;;;;;;5020545;28;20831;-72
2023/10/27 06:56:25;;;;;;;10.60;10.40;;;10.60;99.90;;;;;;5053847;27;20457;-71
2023/10/27 06:58:51;;;;;;;10.50;10.30;;;10.60;99.90;;;;;;5017521;27;20481;-71
2023/10/27 07:01:18;;;;;;;9.43;9.23;;;10.70;99.90;;;;;;5011063;27;20497;-72
2023/10/27 07:03:46;;;;;;;10.23;10.03;;;10.70;99.90;;;;;;5010747;27;20477;-71
2023/10/27 07:06:13;;;;;;;10.30;10.10;;;10.80;99.90;;;;;;5013921;28;20461;-71
2023/10/27 07:08:40;;;;;;;11.10;10.87;;;10.80;99.90;;;;;;5018279;27;20472;-70
2023/10/27 07:11:07;;;;;;;10.83;10.63;;;10.80;99.90;;;;;;5013337;27;20473;-72
2023/10/27 07:13:33;;;;;;;11.30;11.00;;;10.90;99.90;;;;;;5013631;27;20460;-71
2023/10/27 07:16:00;;;;;;;11.33;11.03;;;10.90;99.90;;;;;;5014425;27;21108;-71
2023/10/27 07:18:27;;;;;;;11.77;11.47;;;11.00;99.90;;;;;;5013200;27;20493;-71
2023/10/27 07:20:55;;;;;;;11.67;11.37;;;11.10;99.90;;;;;;5011620;27;21023;-69
2023/10/27 07:23:22;;;;;;;11.40;11.10;;;11.10;99.90;;;;;;5006522;27;20488;-70
2023/10/27 07:25:49;;;;;;;11.23;10.93;;;11.20;99.90;;;;;;5014741;27;20480;-70
2023/10/27 07:28:16;;;;;;;10.90;10.70;;;11.30;99.90;;;;;;5012340;27;20497;-71
2023/10/27 07:30:43;;;;;;;10.13;9.93;;;11.30;99.90;;;;;;5011750;28;20474;-71
2023/10/27 07:33:11;;;;;;;9.60;9.40;;;11.30;99.90;;;;;;5014698;27;20470;-72
2023/10/27 07:35:39;;;;;;;9.40;9.20;;;11.30;99.90;;;;;;5009523;28;20477;-71
2023/10/27 07:38:07;;;;;;;9.30;9.10;;;11.30;99.90;;;;;;5010968;27;20469;-71
2023/10/27 07:40:34;;;;;;;9.23;9.03;;;11.30;99.90;;;;;;5013734;27;20504;-72
2023/10/27 07:43:01;;;;;;;8.90;8.80;;;11.30;99.90;;;;;;5010872;27;21187;-72
2023/10/27 07:45:28;;;;;;;9.20;9.00;;;11.40;99.90;;;;;;5011268;28;20493;-71
2023/10/27 07:47:58;;;;;;;7.70;7.60;;;11.40;99.90;;;;;;5009871;27;20604;-72
2023/10/27 07:50:25;;;;;;;8.73;8.63;;;11.30;99.90;;;;;;5014553;28;20468;-73
2023/10/27 07:52:51;;;;;;;8.40;8.30;;;11.30;99.90;;;;;;5014326;28;21099;-71
2023/10/27 07:55:19;;;;;;;8.50;8.40;;;11.40;99.90;;;;;;5015478;28;20531;-71
2023/10/27 07:57:47;;;;;;;9.00;8.90;;;11.40;99.90;;;;;;5006868;28;20476;-72
2023/10/27 08:00:14;;;;;;;8.30;8.20;;;11.40;99.90;;;;;;5015137;28;20465;-71
2023/10/27 08:02:41;;;;;;;8.67;8.57;;;11.40;99.90;;;;;;5009700;27;20864;-71
2023/10/27 08:05:08;;;;;;;8.90;8.80;;;11.40;99.90;;;;;;5014049;28;20466;-72
2023/10/27 08:07:36;;;;;;;8.87;8.77;;;11.40;99.90;;;;;;5015987;28;20464;-71
2023/10/27 08:10:07;;;;;;;9.33;9.13;;;11.40;99.90;;;;;;5014247;28;20467;-71
2023/10/27 08:12:35;;;;;;;9.80;9.60;;;11.40;99.90;;;;;;5012817;28;20473;-73
2023/10/27 08:15:05;;;;;;;8.83;8.73;;;11.40;99.90;;;;;;5012479;27;20469;-73
2023/10/27 08:17:32;;;;;;;9.50;9.30;;;11.40;99.90;;;;;;5003372;28;21080;-70
2023/10/27 08:19:59;;;;;;;9.43;9.23;;;11.50;99.90;;;;;;5005673;28;20476;-72
2023/10/27 08:22:26;;;;;;;8.00;7.90;;;11.60;99.90;;;;;;5013282;28;20848;-72
2023/10/27 08:24:53;;;;;;;8.57;8.47;;;11.50;99.90;;;;;;5011183;28;20471;-71
2023/10/27 08:27:22;;;;;;;8.30;8.20;;;11.60;99.90;;;;;;5013759;28;20507;-72
2023/10/27 08:29:54;;;;;;;8.43;8.33;;;11.60;99.90;;;;;;5011728;28;20478;-70
2023/10/27 08:32:22;;;;;;;9.47;9.27;;;11.60;99.90;;;;;;5015643;28;20484;-72
2023/10/27 08:34:49;;;;;;;9.90;9.70;;;11.50;99.90;;;;;;5007887;28;20573;-70
2023/10/27 08:37:16;;;;;;;9.80;9.60;;;11.60;99.90;;;;;;5017127;28;20561;-71
2023/10/27 08:39:43;;;;;;;10.23;10.03;;;11.50;99.90;;;;;;5014773;28;20882;-71
2023/10/27 08:42:11;;;;;;;9.60;9.40;;;11.60;99.90;;;;;;5011809;28;20501;-72
2023/10/27 08:44:39;;;;;;;10.20;10.00;;;11.50;99.90;;;;;;5009791;28;21312;-72
2023/10/27 08:47:07;;;;;;;10.23;10.03;;;11.60;99.90;;;;;;5015395;28;20461;-70
2023/10/27 08:49:35;;;;;;;9.33;9.13;;;11.60;99.90;;;;;;5006906;28;20506;-72
2023/10/27 08:52:02;;;;;;;9.50;9.30;;;11.50;99.90;;;;;;5013171;28;20481;-71
2023/10/27 08:54:30;;;;;;;10.40;10.20;;;11.60;99.90;;;;;;5019886;28;20568;-70
2023/10/27 08:56:57;;;;;;;9.70;9.50;;;11.50;99.90;;;;;;5008522;28;20897;-71
2023/10/27 08:59:24;;;;;;;9.20;9.00;;;11.60;99.90;;;;;;5015468;28;20466;-72
2023/10/27 09:01:51;;;;;;;8.63;8.53;;;11.60;99.90;;;;;;5013466;28;21022;-71
2023/10/27 09:04:23;;;;;;;9.60;9.40;;;11.70;99.90;;;;;;5008305;28;20972;-72
2023/10/27 09:06:50;;;;;;;8.57;8.47;;;11.70;99.90;;;;;;5013507;28;20462;-71
2023/10/27 09:09:18;;;;;;;9.43;9.23;;;11.70;99.90;;;;;;5011268;28;20457;-72
2023/10/27 09:11:47;;;;;;;9.47;9.27;;;11.80;99.90;;;;;;5007744;28;20462;-72
2023/10/27 09:14:18;;;;;;;9.40;9.20;;;11.90;99.90;;;;;;5019205;28;20497;-71
2023/10/27 09:16:46;;;;;;;9.97;9.77;;;12.00;99.90;;;;;;5009410;28;20518;-72
2023/10/27 09:19:21;;;;;;;8.10;8.00;;;12.00;99.90;;;;;;5016895;28;20461;-70
2023/10/27 09:21:48;;;;;;;8.90;8.80;;;11.90;99.90;;;;;;5010757;28;20497;-72
2023/10/27 09:24:25;;;;;;;9.20;9.00;;;12.00;99.90;;;;;;5013706;28;20804;-72
2023/10/27 09:26:52;;;;;;;8.60;8.50;;;12.10;99.90;;;;;;5008202;28;21025;-71
2023/10/27 09:29:20;;;;;;;8.70;8.60;;;12.10;99.90;;;;;;5012893;28;20473;-72
2023/10/27 09:31:47;;;;;;;9.20;9.00;;;12.20;99.90;;;;;;5021900;27;20466;-70
2023/10/27 09:34:19;;;;;;;9.27;9.07;;;12.40;99.90;;;;;;5017532;27;20466;-71
2023/10/27 09:36:49;;;;;;;8.73;8.63;;;12.50;99.90;;;;;;5014628;27;20458;-72
2023/10/27 09:39:18;;;;;;;8.17;8.07;;;12.40;99.90;;;;;;5019491;27;20984;-71
2023/10/27 09:41:56;;;;;;;7.63;7.53;;;12.60;99.90;;;;;;5016371;27;20505;-72
2023/10/27 09:44:34;;;;;;;8.27;8.17;;;12.50;99.90;;;;;;5017178;27;20481;-72
2023/10/27 09:47:06;;;;;;;7.90;7.80;;;12.50;99.90;;;;;;5014779;27;20999;-71
2023/10/27 09:49:36;;;;;;;7.97;7.87;;;12.70;99.90;;;;;;5013222;27;20458;-72
2023/10/27 09:52:10;;;;;;;8.20;8.10;;;12.70;99.90;;;;;;5016143;27;20469;-70
2023/10/27 09:54:37;;;;;;;8.20;8.10;;;12.70;99.90;;;;;;5019319;27;20501;-70
2023/10/27 09:57:05;;;;;;;7.57;7.47;;;12.70;99.90;;;;;;5016730;27;20471;-72
2023/10/27 09:59:32;;;;;;;7.50;7.40;;;12.70;99.90;;;;;;5008476;27;20477;-71
2023/10/27 10:02:05;;;;;;;7.20;7.10;;;12.70;99.90;;;;;;5023647;27;20589;-72
2023/10/27 10:04:57;;;;;;;7.53;7.43;;;12.70;99.90;;;;;;5012203;27;20857;-71
2023/10/27 10:07:32;;;;;;;7.10;7.00;;;12.60;99.90;;;;;;5010878;28;20530;-70
2023/10/27 10:10:16;;;;;;;7.37;7.27;;;12.70;99.90;;;;;;5022786;27;20913;-71
2023/10/27 10:13:06;;;;;;;7.73;7.63;;;12.80;99.90;;;;;;5017517;27;20551;-72
2023/10/27 10:15:34;;;;;;;7.47;7.37;;;12.90;99.90;;;;;;5011090;28;20476;-70
2023/10/27 10:18:02;;;;;;;10.77;10.57;;;12.90;99.90;;;;;;5017889;27;20757;-71
2023/10/27 10:20:56;;;;;;;13.10;12.70;;;12.90;99.90;;;;;;5013215;27;21103;-72
2023/10/27 10:23:51;;;;;;;11.47;11.17;;;12.80;99.90;;;;;;5009816;27;20458;-72
2023/10/27 10:26:19;;;;;;;11.07;10.77;;;12.80;99.90;;;;;;5026314;27;20462;-72
2023/10/27 10:28:46;;;;;;;11.00;10.70;;;12.80;99.90;;;;;;5015665;27;21020;-71
2023/10/27 10:31:23;;;;;;;10.17;9.97;;;12.70;99.90;;;;;;5020220;27;20470;-72
2023/10/27 10:33:51;;;;;;;9.27;9.07;;;12.70;99.90;;;;;;5008421;28;20522;-73
2023/10/27 10:36:27;;;;;;;9.60;9.40;;;12.60;99.90;;;;;;5010311;27;22495;-72
2023/10/27 10:38:59;;;;;;;9.73;9.53;;;12.60;99.90;;;;;;5015369;27;20454;-71
2023/10/27 10:42:01;;;;;;;9.37;9.17;;;12.60;99.90;;;;;;5010586;27;20577;-70
2023/10/27 10:44:30;;;;;;;9.40;9.20;;;12.60;99.90;;;;;;5011790;27;20482;-72
2023/10/27 10:47:00;;;;;;;8.60;8.50;;;12.70;99.90;;;;;;5014859;27;20470;-70
2023/10/27 10:49:28;;;;;;;9.07;8.90;;;12.80;99.90;;;;;;5017198;27;20968;-70
2023/10/27 10:51:56;;;;;;;8.53;8.43;;;12.70;99.90;;;;;;5012915;27;20554;-71
2023/10/27 10:54:31;;;;;;;8.63;8.53;;;12.80;99.90;;;;;;5011144;27;20539;-70
2023/10/27 10:57:07;;;;;;;8.83;8.73;;;12.90;99.90;;;;;;5011367;27;22048;-72
2023/10/27 10:59:35;;;;;;;10.17;9.97;;;13.00;99.90;;;;;;5011386;28;20514;-70
2023/10/27 11:02:04;;;;;;;11.10;10.80;;;13.00;99.90;;;;;;5011493;27;20862;-69
2023/10/27 11:04:32;;;;;;;10.73;10.43;;;13.00;99.90;;;;;;5008851;28;20506;-70
2023/10/27 11:07:03;;;;;;;10.90;10.60;;;13.10;99.90;;;;;;5012089;27;20470;-71
2023/10/27 11:09:32;;;;;;;11.20;10.90;;;13.40;99.90;;;;;;5026417;27;20480;-70
2023/10/27 11:12:00;;;;;;;11.60;11.30;;;13.60;99.90;;;;;;5016812;27;20546;-70
2023/10/27 11:14:28;;;;;;;10.90;10.60;;;13.60;99.90;;;;;;5014979;27;20473;-71
2023/10/27 11:17:00;;;;;;;11.23;10.93;;;13.80;99.90;;;;;;5010170;28;20563;-71
2023/10/27 11:19:27;;;;;;;10.50;10.30;;;14.30;99.90;;;;;;5009602;27;20466;-72
2023/10/27 11:21:55;;;;;;;10.83;10.60;;;14.30;99.90;;;;;;5019383;27;20585;-70
2023/10/27 11:24:23;;;;;;;9.57;9.37;;;14.30;99.90;;;;;;5009224;27;20555;-71
2023/10/27 11:26:51;;;;;;;10.03;9.83;;;14.40;99.90;;;;;;5014247;28;20464;-70
2023/10/27 11:29:19;;;;;;;9.40;9.20;;;14.40;99.90;;;;;;5013324;27;20472;-71
2023/10/27 11:31:47;;;;;;;10.20;10.00;;;14.40;99.90;;;;;;5009104;27;20970;-72
2023/10/27 11:34:20;;;;;;;9.77;9.57;;;14.40;99.90;;;;;;5011878;27;20468;-70
2023/10/27 11:37:00;;;;;;;10.27;10.07;;;14.30;99.90;;;;;;5017501;27;20457;-71
2023/10/27 11:39:27;;;;;;;10.10;9.90;;;14.30;99.90;;;;;;5013654;27;20462;-69
2023/10/27 11:41:59;;;;;;;9.87;9.67;;;14.20;99.90;;;;;;5017081;27;20546;-70
2023/10/27 11:44:26;;;;;;;9.73;9.53;;;14.20;99.90;;;;;;5010220;28;21019;-71
2023/10/27 11:46:54;;;;;;;9.80;9.60;;;14.10;99.90;;;;;;5021060;27;20464;-70
2023/10/27 11:49:21;;;;;;;12.50;12.10;;;14.00;99.90;;;;;;5011246;27;20889;-69
2023/10/27 11:51:50;;;;;;;13.90;13.40;;;13.90;99.90;;;;;;5011706;27;20961;-70
2023/10/27 11:54:17;;;;;;;13.73;13.23;;;13.70;99.90;;;;;;5011494;27;20462;-72
2023/10/27 11:56:44;;;;;;;12.60;12.20;;;13.60;99.90;;;;;;5010273;27;20467;-72
2023/10/27 11:59:13;;;;;;;12.97;12.57;;;13.50;99.90;;;;;;5013899;27;20561;-73
2023/10/27 12:01:40;;;;;;;12.47;12.07;;;13.40;99.90;;;;;;5017825;27;20473;-72
2023/10/27 12:04:10;;;;;;;11.80;11.50;;;13.10;99.90;;;;;;5012279;27;20497;-71
2023/10/27 12:06:37;;;;;;;12.50;12.10;;;12.70;99.90;;;;;;5009681;27;20466;-70
2023/10/27 12:09:04;;;;;;;11.33;11.03;;;12.40;99.90;;;;;;5014187;28;20563;-73
2023/10/27 12:11:32;;;;;;;11.83;11.53;;;12.20;99.90;;;;;;5011735;28;20536;-73
2023/10/27 12:13:58;;;;;;;11.17;10.87;;;12.20;99.90;;;;;;5012036;28;20455;-73
2023/10/27 12:16:29;;;;;;;9.87;9.67;;;12.30;99.90;;;;;;5017670;27;20560;-71
2023/10/27 12:18:56;;;;;;;8.67;8.57;;;12.30;99.90;;;;;;5009866;28;20468;-71
2023/10/27 12:21:24;;;;;;;7.93;7.83;;;12.40;99.90;;;;;;5012449;28;20462;-71
2023/10/27 12:23:51;;;;;;;7.83;7.73;;;12.60;99.90;;;;;;5031237;28;20569;-72
2023/10/27 12:26:18;;;;;;;8.50;8.40;;;12.80;99.90;;;;;;5020916;28;20811;-72
2023/10/27 12:28:45;;;;;;;8.90;8.77;;;13.00;99.90;;;;;;5025142;28;20465;-72
2023/10/27 12:31:13;;;;;;;8.27;8.17;;;13.20;99.90;;;;;;5023823;28;20481;-72
2023/10/27 12:33:42;;;;;;;7.80;7.70;;;13.30;99.90;;;;;;5026776;28;20476;-71
2023/10/27 12:36:10;;;;;;;7.47;7.37;;;13.40;99.90;;;;;;5027780;28;20508;-69
2023/10/27 12:38:38;;;;;;;7.50;7.40;;;13.40;99.90;;;;;;5015917;28;20464;-71
2023/10/27 12:41:05;;;;;;;8.30;8.20;;;13.40;99.90;;;;;;5013800;28;20486;-71
2023/10/27 12:43:32;;;;;;;7.50;7.40;;;13.40;99.90;;;;;;5023520;28;20588;-71
2023/10/27 12:46:03;;;;;;;7.70;7.60;;;13.40;99.90;;;;;;5026658;28;20477;-72
2023/10/27 12:48:31;;;;;;;7.87;7.77;;;13.30;99.90;;;;;;5021596;28;20490;-70
2023/10/27 12:51:01;;;;;;;8.07;7.97;;;13.30;99.90;;;;;;5028771;28;20800;-71